Time;durP1;ratioP1;P1;durP2;ratioP2;P2;SDS_P1;SDS_P2;PMS_P1;PMS_P2;Temp;Humidity;BMP_temperature;BMP_pressure;BME280_temperature;BME280_humidity;BME280_pressure;Samples;Min_cycle;Max_cycle;Signal;HPM_P1;HPM_P2
2022/12/29 00:01:28;;;;;;;2.70;2.50;;;;;;;10.44;92.62;100082.75;20817285;28;20518;-58
2022/12/29 00:11:50;;;;;;;2.80;2.53;;;;;;;10.51;92.20;100068.66;20813565;28;20628;-59
2022/12/29 00:54:16;;;;;;;5.03;3.85;;;;;;;10.54;94.13;100032.31;20823988;28;20033;-58
2022/12/29 01:04:38;;;;;;;5.20;3.80;;;;;;;10.50;94.52;100012.66;20829841;28;20057;-58
2022/12/29 01:15:00;;;;;;;4.97;3.70;;;;;;;10.54;93.97;100009.03;20792647;28;20099;-58
2022/12/29 01:25:21;;;;;;;3.73;3.30;;;;;;;10.66;93.33;99999.88;20807799;28;20045;-59
2022/12/29 01:35:43;;;;;;;3.60;3.30;;;;;;;10.76;93.73;99990.81;20806902;28;20394;-58
2022/12/29 01:46:33;;;;;;;9.80;2.80;;;;;;;10.78;93.02;99976.06;20789415;28;20092;-58
2022/12/29 01:57:00;;;;;;;3.90;2.70;;;;;;;10.83;92.73;99967.19;20787479;28;20060;-58
2022/12/29 02:07:25;;;;;;;2.78;2.30;;;;;;;10.89;92.66;99959.16;20776913;28;20084;-59
2022/12/29 02:17:56;;;;;;;3.00;2.30;;;;;;;10.94;92.47;99952.03;20807621;28;20057;-59
2022/12/29 02:28:27;;;;;;;4.17;1.83;;;;;;;10.97;92.44;99946.69;20824344;28;20107;-59
2022/12/29 02:39:15;;;;;;;2.78;2.30;;;;;;;11.08;91.61;99921.16;20809175;28;20487;-58
2022/12/29 02:49:46;;;;;;;3.10;2.00;;;;;;;11.04;91.82;99914.44;20808877;28;20115;-59
2022/12/29 03:00:12;;;;;;;2.13;2.00;;;;;;;11.10;91.63;99910.72;20813406;28;20562;-59
2022/12/29 03:10:45;;;;;;;4.10;2.30;;;;;;;11.13;91.07;99888.13;20811511;28;20515;-59
2022/12/29 03:21:17;;;;;;;5.13;2.25;;;;;;;11.15;91.25;99878.53;20767966;23;20413;-71
2022/12/29 03:31:42;;;;;;;2.92;2.15;;;;;;;11.18;90.93;99869.78;20749268;28;20145;-71
2022/12/29 03:42:11;;;;;;;2.10;1.90;;;;;;;11.09;92.77;99862.47;20758160;28;20116;-72
2022/12/29 03:52:32;;;;;;;3.35;1.98;;;;;;;10.99;94.17;99854.28;20770743;28;20107;-69
2022/12/29 04:02:54;;;;;;;1.92;1.40;;;;;;;10.88;96.48;99855.69;20755663;28;20475;-69
2022/12/29 04:13:16;;;;;;;3.53;1.45;;;;;;;10.98;96.00;99862.97;20765066;28;20046;-70
2022/12/29 04:23:38;;;;;;;;;;;;;;;11.06;95.92;99860.84;20764003;28;20045;-70
2022/12/29 04:34:00;;;;;;;1.90;0.80;;;;;;;11.18;94.42;99861.16;20760276;28;19924;-70
2022/12/29 04:44:22;;;;;;;1.92;1.08;;;;;;;11.23;93.47;99869.53;20758412;28;20124;-71
2022/12/29 04:54:43;;;;;;;0.80;0.80;;;;;;;11.48;90.70;99862.28;20749321;28;20046;-71
2022/12/29 05:05:05;;;;;;;3.67;0.90;;;;;;;11.43;89.52;99862.50;20758822;28;20107;-71
2022/12/29 05:15:28;;;;;;;0.82;0.65;;;;;;;11.48;88.75;99862.28;20755980;28;20570;-71
2022/12/29 05:25:49;;;;;;;0.70;0.60;;;;;;;11.50;88.79;99856.09;20754261;28;20054;-70
2022/12/29 05:36:11;;;;;;;1.23;0.60;;;;;;;11.55;88.08;99863.66;20760109;28;20464;-71
2022/12/29 05:46:33;;;;;;;;;;;;;;;11.37;88.08;99882.69;20758381;28;20587;-71
2022/12/29 05:56:54;;;;;;;2.43;0.50;;;;;;;11.34;88.05;99869.88;20774078;28;19925;-72
2022/12/29 06:07:16;;;;;;;0.43;0.40;;;;;;;11.27;88.38;99845.19;20754698;28;20049;-71
2022/12/29 06:17:37;;;;;;;0.67;0.50;;;;;;;11.09;89.41;99855.53;20732070;28;20640;-71
2022/12/29 06:28:00;;;;;;;1.30;0.50;;;;;;;11.19;88.41;99873.22;20761640;28;20037;-71
2022/12/29 06:38:21;;;;;;;1.58;0.70;;;;;;;11.15;88.53;99852.63;20760289;28;20133;-71
2022/12/29 06:48:43;;;;;;;3.47;0.83;;;;;;;11.09;87.95;99884.03;20748213;28;20046;-71
2022/12/29 06:59:04;;;;;;;4.97;1.40;;;;;;;11.18;87.92;99884.47;20746297;28;20044;-72
2022/12/29 07:09:26;;;;;;;3.75;1.35;;;;;;;11.14;87.04;99879.44;20770366;28;21010;-72
2022/12/29 07:19:48;;;;;;;1.87;0.77;;;;;;;11.19;85.08;99899.94;20756535;28;20103;-71
2022/12/29 07:30:10;;;;;;;1.20;0.63;;;;;;;11.20;84.80;99908.53;20769922;28;20398;-72
2022/12/29 07:40:31;;;;;;;4.57;1.00;;;;;;;11.20;85.14;99932.69;20758244;28;20054;-71
2022/12/29 07:50:53;;;;;;;2.63;0.83;;;;;;;11.36;83.10;99923.28;20766065;28;20041;-72
2022/12/29 08:01:15;;;;;;;4.47;0.85;;;;;;;11.26;84.42;99954.88;20759834;28;20461;-73
2022/12/29 08:11:36;;;;;;;4.90;1.10;;;;;;;11.24;83.46;99943.75;20740399;28;20472;-70
2022/12/29 08:21:58;;;;;;;5.60;0.98;;;;;;;11.25;81.37;99945.41;20733659;28;21159;-71
2022/12/29 08:32:19;;;;;;;6.43;1.40;;;;;;;11.27;80.90;99997.97;20729060;28;20046;-73
2022/12/29 08:42:41;;;;;;;6.17;1.20;;;;;;;11.21;80.14;99980.16;20738070;28;20055;-71
2022/12/29 08:53:02;;;;;;;7.87;1.20;;;;;;;11.11;81.38;99988.31;20762482;28;20612;-72
2022/12/29 09:03:25;;;;;;;6.70;1.00;;;;;;;11.19;80.94;99992.34;20729280;28;20523;-71
2022/12/29 09:14:06;;;;;;;5.47;0.90;;;;;;;11.26;80.97;99998.91;20759259;28;20059;-72
2022/12/29 09:24:28;;;;;;;5.38;1.10;;;;;;;11.12;81.33;100008.13;20749527;23;20046;-58
2022/12/29 09:34:50;;;;;;;12.38;1.40;;;;;;;11.17;80.62;99994.16;20741796;28;20470;-59
2022/12/29 09:45:18;;;;;;;10.23;1.60;;;;;;;11.19;79.81;100015.63;20740177;28;20042;-59
2022/12/29 09:55:49;;;;;;;9.00;1.30;;;;;;;11.09;79.26;100017.78;20750516;28;20042;-58
2022/12/29 10:06:17;;;;;;;5.97;1.10;;;;;;;11.07;79.06;100007.53;20738756;28;20049;-58
2022/12/29 10:16:43;;;;;;;3.97;1.10;;;;;;;11.13;78.78;100027.94;20752924;28;20045;-59
2022/12/29 10:27:10;;;;;;;3.95;0.90;;;;;;;11.23;78.55;100024.91;20753857;28;20091;-58
2022/12/29 10:37:45;;;;;;;7.22;1.25;;;;;;;11.20;77.26;100028.50;20768778;28;20566;-59
2022/12/29 10:48:21;;;;;;;5.90;1.17;;;;;;;11.29;76.85;100022.06;20771019;28;20041;-58
2022/12/29 10:58:50;;;;;;;6.78;1.00;;;;;;;11.16;78.71;100026.97;20754479;28;20054;-58
2022/12/29 11:09:16;;;;;;;5.35;1.10;;;;;;;11.11;78.95;100011.63;20759692;28;20075;-57
2022/12/29 11:19:37;;;;;;;9.27;1.55;;;;;;;11.15;79.11;100005.41;20774999;28;20053;-58
2022/12/29 11:30:03;;;;;;;7.63;1.40;;;;;;;11.35;77.40;100012.28;20762677;28;20049;-57
2022/12/29 11:40:25;;;;;;;6.88;1.45;;;;;;;11.46;76.87;100025.56;20767243;28;20069;-58
2022/12/29 11:50:53;;;;;;;5.05;1.23;;;;;;;11.45;76.84;100033.38;20768775;28;20080;-57
2022/12/29 12:01:36;;;;;;;6.50;1.17;;;;;;;11.33;78.70;100049.50;20756727;28;20054;-58
2022/12/29 12:12:00;;;;;;;8.00;1.17;;;;;;;10.96;83.16;100074.47;20750903;28;20049;-58
2022/12/29 12:22:31;;;;;;;8.15;1.33;;;;;;;10.90;83.25;100077.31;20751827;28;20137;-59
2022/12/29 12:33:05;;;;;;;6.35;1.00;;;;;;;11.06;81.90;100098.19;20775213;28;20042;-57
2022/12/29 12:43:27;;;;;;;4.55;0.80;;;;;;;11.00;82.25;100122.59;20761720;28;20050;-57
2022/12/29 12:54:04;;;;;;;2.60;0.80;;;;;;;11.09;82.18;100135.16;20743205;28;20413;-58
2022/12/29 13:04:47;;;;;;;8.50;1.35;;;;;;;11.07;82.16;100162.00;20749763;28;20094;-57
2022/12/29 13:15:19;;;;;;;8.70;1.90;;;;;;;10.95;83.11;100198.78;20778978;28;20080;-57
2022/12/29 13:25:51;;;;;;;6.13;1.15;;;;;;;10.89;82.85;100210.22;20756602;28;20137;-56
2022/12/29 13:36:22;;;;;;;9.32;1.58;;;;;;;11.00;81.32;100236.50;20759958;28;20049;-57
2022/12/29 13:46:46;;;;;;;9.10;1.30;;;;;;;10.93;80.69;100242.81;20751618;28;20046;-57
2022/12/29 13:57:19;;;;;;;7.65;1.30;;;;;;;10.91;79.92;100270.50;20750409;28;20049;-58
2022/12/29 14:07:57;;;;;;;7.82;1.20;;;;;;;10.90;79.20;100292.13;20730225;28;20045;-57
2022/12/29 14:18:22;;;;;;;11.18;1.65;;;;;;;10.76;81.48;100302.19;20764955;28;20053;-57
2022/12/29 14:28:48;;;;;;;11.32;1.80;;;;;;;10.61;82.83;100313.13;20718115;28;20689;-58
2022/12/29 14:39:34;;;;;;;8.68;1.75;;;;;;;10.54;81.67;100342.75;20744959;28;20720;-58
2022/12/29 14:50:03;;;;;;;9.48;1.80;;;;;;;10.49;81.14;100334.31;20760264;28;20393;-58
2022/12/29 15:00:31;;;;;;;9.98;1.75;;;;;;;10.43;81.19;100360.41;20767059;28;20149;-57
2022/12/29 15:11:22;;;;;;;11.98;1.65;;;;;;;10.39;80.44;100358.81;20731594;28;20124;-57
2022/12/29 15:21:44;;;;;;;11.40;1.67;;;;;;;10.20;82.29;100362.97;20782281;22;20103;-64
2022/12/29 15:32:21;;;;;;;7.70;1.70;;;;;;;10.13;81.79;100366.66;20789108;28;20347;-64
2022/12/29 15:43:27;;;;;;;7.80;1.85;;;;;;;10.17;80.59;100391.53;20791624;28;20050;-66
2022/12/29 15:53:51;;;;;;;8.85;1.63;;;;;;;10.08;82.31;100389.22;20728213;28;20508;-64
2022/12/29 16:04:14;;;;;;;10.25;1.80;;;;;;;9.98;82.60;100390.47;20780093;28;20096;-64
2022/12/29 16:14:56;;;;;;;9.52;1.80;;;;;;;9.95;82.90;100403.47;20765740;28;20493;-63
2022/12/29 16:25:35;;;;;;;;;;;;;;;9.77;83.87;100410.13;20771647;28;20054;-63
2022/12/29 16:35:57;;;;;;;11.30;2.05;;;;;;;9.74;84.17;100424.88;20791000;28;19928;-63
2022/12/29 16:46:26;;;;;;;13.53;3.07;;;;;;;9.79;83.81;100428.16;20782281;28;20179;-64
2022/12/29 16:56:48;;;;;;;14.82;2.47;;;;;;;9.89;83.57;100424.34;20789663;28;20071;-64
2022/12/29 17:07:22;;;;;;;13.35;2.58;;;;;;;9.89;83.24;100430.38;20761669;28;20068;-63
2022/12/29 17:17:49;;;;;;;9.90;2.17;;;;;;;9.89;83.39;100420.03;20769344;28;20053;-64
2022/12/29 17:28:24;;;;;;;9.85;2.50;;;;;;;9.95;83.39;100429.31;20791605;28;20038;-63
2022/12/29 17:38:45;;;;;;;10.20;2.97;;;;;;;9.96;83.92;100436.19;20764696;28;20135;-63
2022/12/29 17:49:13;;;;;;;9.48;2.83;;;;;;;10.08;83.11;100436.63;20765103;28;20053;-65
2022/12/29 17:59:34;;;;;;;8.07;2.55;;;;;;;10.27;81.25;100447.19;20773790;28;20045;-63
2022/12/29 18:09:56;;;;;;;11.17;2.63;;;;;;;10.17;81.61;100438.06;20775849;28;20120;-63
2022/12/29 18:20:18;;;;;;;10.55;2.40;;;;;;;10.14;82.55;100446.75;20783724;28;20084;-63
2022/12/29 18:30:39;;;;;;;6.43;2.20;;;;;;;9.88;84.31;100526.03;20760667;28;20076;-65
2022/12/29 18:41:01;;;;;;;3.08;0.70;;;;;;;8.33;84.48;100535.75;20778828;28;20413;-62
2022/12/29 18:51:24;;;;;;;1.80;0.57;;;;;;;7.74;89.76;100526.88;20768031;28;20103;-63
2022/12/29 19:01:46;;;;;;;2.90;0.63;;;;;;;7.66;90.38;100518.47;20787553;28;20480;-65
2022/12/29 19:12:07;;;;;;;4.03;1.43;;;;;;;7.86;90.08;100508.53;20784070;28;20049;-64
2022/12/29 19:22:29;;;;;;;4.50;1.43;;;;;;;7.90;90.93;100516.19;20791194;28;20049;-66
2022/12/29 19:32:52;;;;;;;6.43;2.10;;;;;;;8.00;91.73;100527.13;20771431;28;20051;-63
2022/12/29 19:43:14;;;;;;;9.75;1.83;;;;;;;8.44;88.18;100542.31;20786229;28;20526;-64
2022/12/29 19:53:36;;;;;;;7.18;1.60;;;;;;;8.45;87.45;100559.47;20769538;28;20034;-63
2022/12/29 20:03:59;;;;;;;6.90;1.52;;;;;;;8.35;87.49;100562.34;20785704;28;20457;-62
2022/12/29 20:14:20;;;;;;;5.93;1.75;;;;;;;8.23;88.47;100571.19;20783600;28;20053;-62
2022/12/29 20:24:42;;;;;;;8.80;2.40;;;;;;;8.22;89.00;100577.25;20780981;28;20091;-63
2022/12/29 20:35:11;;;;;;;6.88;2.10;;;;;;;8.28;88.46;100587.41;20766591;28;20110;-62
2022/12/29 20:45:33;;;;;;;7.68;2.38;;;;;;;8.37;87.95;100591.50;20776024;28;20713;-63
2022/12/29 20:56:00;;;;;;;11.53;2.70;;;;;;;8.36;87.42;100615.56;20774039;28;20042;-62
2022/12/29 21:06:21;;;;;;;18.17;2.53;;;;;;;8.35;86.91;100619.88;20781037;28;20052;-63
2022/12/29 21:16:43;;;;;;;14.03;2.20;;;;;;;8.23;87.43;100607.25;20775679;28;20500;-63
2022/12/29 21:27:05;;;;;;;17.17;2.53;;;;;;;8.21;87.33;100624.50;20771023;28;20038;-62
2022/12/29 21:37:26;;;;;;;14.33;2.43;;;;;;;8.28;86.62;100649.28;20768495;28;20788;-62
2022/12/29 22:19:48;;;;;;;24.85;3.30;;;;;;;8.25;85.70;100682.00;20775560;28;20042;-64
2022/12/29 22:30:10;;;;;;;12.97;2.57;;;;;;;8.23;85.09;100687.16;20769686;28;20087;-64
2022/12/29 22:40:32;;;;;;;15.93;2.97;;;;;;;8.30;85.07;100688.75;20806679;28;20108;-64
2022/12/29 22:50:54;;;;;;;21.67;2.90;;;;;;;8.34;85.05;100700.69;20779565;28;20037;-64
2022/12/29 23:01:21;;;;;;;11.90;2.65;;;;;;;8.36;84.24;100711.81;20784134;28;20049;-64
2022/12/29 23:11:43;;;;;;;18.10;2.75;;;;;;;8.30;84.80;100714.53;20782987;28;20463;-63
2022/12/29 23:22:05;;;;;;;24.05;3.10;;;;;;;8.44;83.80;100740.81;20789396;28;20049;-64
2022/12/29 23:32:26;;;;;;;22.60;3.30;;;;;;;8.44;83.49;100758.88;20770548;28;20057;-63
2022/12/29 23:42:48;;;;;;;22.43;3.10;;;;;;;8.52;82.40;100777.63;20770892;28;20050;-64
2022/12/29 23:53:10;;;;;;;17.53;2.87;;;;;;;8.57;81.93;100811.88;20774862;28;20103;-64
